createdAt,value
2022-11-10T00:07:30.980Z,80.11
2022-11-10T00:10:16.796Z,80.46
2022-11-10T00:13:03.748Z,80.22
2022-11-10T00:16:07.635Z,79.86
2022-11-10T00:18:53.300Z,80.53
2022-11-10T00:21:38.977Z,81.00
2022-11-10T00:24:24.936Z,79.99
2022-11-10T00:27:10.453Z,80.56
2022-11-10T00:29:56.167Z,80.96
2022-11-10T00:32:41.769Z,80.47
2022-11-10T00:35:27.181Z,80.87
2022-11-10T00:38:12.443Z,80.84
2022-11-10T00:41:00.123Z,80.83
2022-11-10T00:43:45.757Z,80.98
2022-11-10T00:46:30.807Z,81.27
2022-11-10T00:49:16.170Z,80.79
2022-11-10T00:52:01.995Z,80.47
2022-11-10T00:54:47.250Z,81.07
2022-11-10T00:57:32.784Z,80.93
2022-11-10T01:00:18.411Z,80.89
2022-11-10T01:03:03.974Z,81.27
2022-11-10T01:05:49.420Z,81.46
2022-11-10T01:08:34.889Z,81.82
2022-11-10T01:11:24.768Z,82.87
2022-11-10T01:14:10.364Z,83.79
2022-11-10T01:16:56.013Z,82.87
2022-11-10T01:19:42.298Z,83.30
2022-11-10T01:22:27.889Z,82.77
2022-11-10T01:25:13.358Z,82.83
2022-11-10T01:27:58.980Z,83.20
2022-11-10T01:30:44.614Z,83.93
2022-11-10T01:33:30.301Z,84.08
2022-11-10T01:36:16.043Z,83.51
2022-11-10T01:39:01.893Z,83.67
2022-11-10T01:41:47.363Z,84.16
2022-11-10T01:44:35.261Z,83.69
2022-11-10T01:47:20.635Z,84.08
2022-11-10T01:50:06.941Z,83.72
2022-11-10T01:52:56.831Z,85.16
2022-11-10T01:55:44.735Z,85.52
2022-11-10T01:58:34.174Z,85.58
2022-11-10T02:01:19.724Z,86.27
2022-11-10T02:04:08.570Z,85.40
2022-11-10T02:06:55.050Z,85.00
2022-11-10T02:09:40.540Z,86.30
2022-11-10T02:12:38.197Z,86.26
2022-11-10T02:15:24.475Z,85.53
2022-11-10T02:18:09.812Z,85.12
2022-11-10T02:20:55.501Z,85.05
2022-11-10T02:23:43.386Z,84.77
2022-11-10T02:26:30.152Z,83.85
2022-11-10T02:29:15.812Z,82.98
2022-11-10T02:32:01.168Z,83.38
2022-11-10T02:34:46.542Z,84.86
2022-11-10T02:37:32.418Z,84.45
2022-11-10T02:40:17.946Z,83.39
2022-11-10T02:43:11.071Z,83.12
2022-11-10T02:45:56.583Z,82.75
2022-11-10T02:48:42.316Z,82.49
2022-11-10T02:51:27.520Z,81.97
2022-11-10T02:54:12.840Z,82.04
2022-11-10T02:56:58.285Z,82.84
2022-11-10T02:59:43.414Z,83.29
2022-11-10T03:02:32.232Z,82.22
2022-11-10T03:05:17.821Z,81.54
2022-11-10T03:08:03.949Z,81.35
2022-11-10T03:10:53.687Z,81.07
2022-11-10T03:13:58.972Z,81.72
2022-11-10T03:16:44.468Z,81.47
2022-11-10T03:19:30.159Z,80.77
2022-11-10T03:22:15.675Z,81.29
2022-11-10T03:25:00.769Z,81.43
2022-11-10T03:27:46.404Z,80.85
2022-11-10T03:30:31.685Z,80.33
2022-11-10T03:33:17.434Z,80.00
2022-11-10T03:36:03.044Z,80.31
2022-11-10T03:38:48.755Z,81.00
2022-11-10T03:41:34.155Z,80.81
2022-11-10T03:44:19.476Z,79.55
2022-11-10T03:47:05.325Z,81.02
2022-11-10T03:49:50.910Z,79.73
2022-11-10T03:52:40.492Z,80.75
2022-11-10T03:55:25.673Z,79.44
2022-11-10T03:58:11.167Z,78.15
2022-11-10T04:00:57.485Z,79.78
2022-11-10T04:03:46.206Z,81.19
2022-11-10T04:06:52.769Z,80.79
2022-11-10T04:09:38.348Z,80.09
2022-11-10T04:12:42.207Z,80.44
2022-11-10T04:15:42.428Z,80.08
2022-11-10T04:18:29.882Z,80.72
2022-11-10T04:21:15.714Z,80.79
2022-11-10T04:24:00.896Z,80.89
2022-11-10T04:26:47.594Z,79.96
2022-11-10T04:29:33.172Z,80.01
2022-11-10T04:32:18.985Z,79.79
2022-11-10T04:35:04.528Z,79.57
2022-11-10T04:37:50.257Z,79.75
2022-11-10T04:40:35.409Z,80.19
2022-11-10T04:43:21.727Z,79.88
2022-11-10T04:46:13.393Z,80.05
2022-11-10T04:48:59.672Z,80.47
2022-11-10T04:51:45.115Z,79.88
2022-11-10T04:54:30.607Z,79.40
2022-11-10T04:57:16.029Z,79.73
2022-11-10T05:00:01.536Z,80.09
2022-11-10T05:02:46.877Z,79.58
2022-11-10T05:05:32.303Z,78.96
2022-11-10T05:08:18.044Z,78.97
2022-11-10T05:11:03.335Z,79.38
2022-11-10T05:13:48.662Z,80.33
2022-11-10T05:16:34.053Z,80.04
2022-11-10T05:19:19.648Z,79.40
2022-11-10T05:22:07.044Z,79.46
2022-11-10T05:24:52.483Z,79.02
2022-11-10T05:27:37.790Z,78.85
2022-11-10T05:30:23.343Z,78.93
2022-11-10T05:33:08.664Z,79.29
2022-11-10T05:35:53.795Z,79.60
2022-11-10T05:38:43.160Z,79.63
2022-11-10T05:41:29.229Z,79.82
2022-11-10T05:44:14.608Z,79.45
2022-11-10T05:47:00.364Z,79.67
2022-11-10T05:49:45.989Z,79.75
2022-11-10T05:52:31.379Z,79.32
2022-11-10T05:55:19.560Z,78.46
2022-11-10T05:58:04.798Z,77.95
2022-11-10T06:00:50.251Z,77.74
2022-11-10T06:03:35.384Z,77.79
2022-11-10T06:06:20.792Z,77.70
2022-11-10T06:09:05.899Z,77.56
2022-11-10T06:11:51.245Z,76.92
2022-11-10T06:14:36.413Z,76.51
2022-11-10T06:17:21.737Z,76.15
2022-11-10T06:20:07.801Z,76.08
2022-11-10T06:23:13.512Z,76.57
2022-11-10T06:25:58.878Z,76.99
2022-11-10T06:28:44.364Z,76.65
2022-11-10T06:31:29.850Z,76.08
2022-11-10T06:34:15.053Z,76.31
2022-11-10T06:37:00.132Z,76.99
2022-11-10T06:39:46.604Z,76.20
2022-11-10T06:42:32.340Z,76.71
2022-11-10T06:45:17.730Z,76.86
2022-11-10T06:48:08.134Z,76.70
2022-11-10T06:50:53.783Z,75.87
2022-11-10T06:53:39.319Z,75.61
2022-11-10T06:56:24.964Z,75.39
2022-11-10T06:59:10.245Z,74.87
2022-11-10T07:01:55.568Z,74.41
2022-11-10T07:04:40.953Z,74.58
2022-11-10T07:07:26.080Z,74.34
2022-11-10T07:10:11.559Z,73.37
2022-11-10T07:12:58.667Z,73.13
2022-11-10T07:15:44.413Z,73.18
2022-11-10T07:18:29.589Z,72.64
2022-11-10T07:21:15.273Z,71.63
2022-11-10T07:24:00.495Z,70.64
2022-11-10T07:26:45.845Z,70.44
2022-11-10T07:29:31.232Z,69.84
2022-11-10T07:32:16.680Z,70.04
2022-11-10T07:35:02.074Z,68.87
2022-11-10T07:37:47.608Z,68.88
2022-11-10T07:40:33.847Z,67.94
2022-11-10T07:43:20.887Z,67.25
2022-11-10T07:46:06.819Z,67.44
2022-11-10T07:48:52.138Z,68.00
2022-11-10T07:51:37.591Z,67.15
2022-11-10T07:54:23.193Z,66.58
2022-11-10T07:57:08.390Z,66.58
2022-11-10T07:59:57.835Z,66.36
2022-11-10T08:02:43.881Z,66.78
2022-11-10T08:05:29.593Z,66.62
2022-11-10T08:08:15.316Z,66.69
2022-11-10T08:11:00.570Z,66.24
2022-11-10T08:13:46.264Z,66.11
2022-11-10T08:16:31.779Z,65.98
2022-11-10T08:19:17.084Z,66.57
2022-11-10T08:22:02.618Z,65.31
2022-11-10T08:24:47.863Z,64.20
2022-11-10T08:27:33.643Z,63.12
2022-11-10T08:30:19.244Z,62.95
2022-11-10T08:33:06.665Z,63.67
2022-11-10T08:35:52.746Z,63.05
2022-11-10T08:38:38.134Z,61.78
2022-11-10T08:41:23.423Z,62.13
2022-11-10T08:44:10.984Z,62.02
2022-11-10T08:46:56.363Z,60.70
2022-11-10T08:49:41.840Z,61.41
2022-11-10T08:52:27.787Z,61.92
2022-11-10T08:55:13.650Z,63.00
2022-11-10T08:58:04.101Z,63.17
2022-11-10T09:00:50.096Z,61.68
2022-11-10T09:03:35.185Z,61.75
2022-11-10T09:06:20.754Z,61.28
2022-11-10T09:09:06.027Z,59.98
2022-11-10T09:11:51.479Z,59.65
2022-11-10T09:14:37.072Z,58.75
2022-11-10T09:17:22.638Z,57.10
2022-11-10T09:20:09.586Z,56.87
2022-11-10T09:22:55.247Z,55.90
2022-11-10T09:25:41.707Z,55.97
2022-11-10T09:28:27.200Z,55.46
2022-11-10T09:31:12.500Z,56.14
2022-11-10T09:33:59.364Z,55.64
2022-11-10T09:36:44.771Z,54.67
2022-11-10T09:39:30.053Z,53.74
2022-11-10T09:42:35.754Z,53.63
2022-11-10T10:18:07.358Z,56.45
2022-11-10T10:20:58.937Z,55.42
2022-11-10T10:24:11.395Z,53.93
2022-11-10T10:27:00.953Z,53.51
2022-11-10T10:29:49.333Z,52.82
2022-11-10T10:32:35.459Z,52.41
2022-11-10T10:35:21.097Z,53.09
2022-11-10T10:38:23.181Z,52.62
2022-11-10T10:41:24.080Z,51.90
2022-11-10T10:44:18.901Z,51.63
2022-11-10T10:47:04.997Z,51.29
2022-11-10T10:49:50.433Z,51.01
2022-11-10T10:52:35.975Z,51.48
2022-11-10T10:55:21.218Z,51.08
2022-11-10T10:58:45.308Z,51.35
2022-11-10T11:01:37.642Z,51.73
2022-11-10T11:04:37.591Z,52.03
2022-11-10T11:07:25.267Z,52.95
2022-11-10T11:10:34.764Z,52.66
2022-11-10T11:13:26.042Z,52.78
2022-11-10T11:16:12.862Z,54.11
2022-11-10T11:18:58.996Z,53.59
2022-11-10T11:22:05.552Z,53.61
2022-11-10T11:24:59.862Z,53.71
2022-11-10T11:27:49.330Z,54.50
2022-11-10T11:31:10.297Z,54.82
2022-11-10T11:33:55.545Z,54.34
2022-11-10T11:36:57.290Z,54.95
2022-11-10T11:40:10.530Z,53.96
2022-11-10T11:43:16.765Z,53.42
2022-11-10T11:46:11.570Z,52.97
2022-11-10T11:49:18.263Z,52.97
2022-11-10T11:52:28.544Z,53.51
2022-11-10T11:55:43.912Z,52.67
2022-11-10T11:59:04.960Z,53.45
2022-11-10T12:02:03.871Z,53.62
2022-11-10T12:05:07.918Z,53.04
2022-11-10T12:08:05.085Z,54.64
2022-11-10T12:10:50.511Z,54.12
2022-11-10T12:14:03.832Z,54.36
2022-11-10T12:17:02.427Z,53.78
2022-11-10T12:20:08.506Z,54.82
2022-11-10T12:23:14.274Z,54.85
2022-11-10T12:26:08.357Z,55.32
2022-11-10T12:29:18.125Z,55.79
2022-11-10T12:32:15.974Z,54.27
2022-11-10T12:35:22.897Z,55.30
2022-11-10T12:38:23.603Z,55.56
2022-11-10T12:41:14.799Z,56.94
2022-11-10T12:44:22.814Z,56.86
2022-11-10T12:47:11.570Z,57.47
2022-11-10T12:50:28.254Z,57.96
2022-11-10T12:53:35.217Z,58.19
2022-11-10T12:56:23.690Z,58.16
2022-11-10T12:59:21.390Z,58.24
2022-11-10T13:02:32.815Z,58.59
2022-11-10T13:05:23.899Z,59.01
2022-11-10T13:08:27.554Z,59.41
2022-11-10T13:11:12.690Z,60.70
2022-11-10T13:14:00.744Z,59.43
2022-11-10T13:16:54.147Z,60.49
2022-11-10T13:19:47.573Z,60.41
2022-11-10T13:22:42.712Z,61.08
2022-11-10T13:25:37.469Z,60.62
2022-11-10T13:28:47.366Z,60.67
2022-11-10T13:31:32.651Z,61.24
2022-11-10T13:34:32.881Z,62.20
2022-11-10T13:37:30.182Z,60.79
2022-11-10T13:40:24.474Z,61.40
2022-11-10T13:43:24.151Z,61.19
2022-11-10T13:46:09.726Z,61.94
2022-11-10T13:49:06.382Z,61.99
2022-11-10T13:52:06.459Z,62.53
2022-11-10T13:55:15.740Z,63.16
2022-11-10T13:58:28.968Z,62.82
2022-11-10T14:01:17.631Z,62.78
2022-11-10T14:04:06.231Z,62.19
2022-11-10T14:06:55.086Z,63.11
2022-11-10T14:09:49.101Z,63.48
2022-11-10T14:12:49.155Z,63.88
2022-11-10T14:15:44.450Z,64.73
2022-11-10T14:18:41.675Z,65.27
2022-11-10T14:21:58.119Z,65.48
2022-11-10T14:25:03.670Z,66.21
2022-11-10T14:27:51.516Z,65.38
2022-11-10T14:30:40.604Z,66.54
2022-11-10T14:33:28.294Z,66.40
2022-11-10T14:36:14.056Z,67.27
2022-11-10T14:39:07.807Z,67.48
2022-11-10T14:41:53.912Z,67.38
2022-11-10T14:44:39.368Z,66.79
2022-11-10T14:47:27.878Z,67.95
2022-11-10T14:50:13.728Z,68.05
2022-11-10T14:53:07.965Z,67.87
2022-11-10T14:55:55.160Z,68.02
2022-11-10T14:58:43.122Z,68.30
2022-11-10T15:01:38.937Z,68.42
2022-11-10T15:04:30.785Z,68.32
2022-11-10T15:07:16.470Z,69.33
2022-11-10T15:10:26.700Z,69.22
2022-11-10T15:13:14.907Z,69.44
2022-11-10T15:16:35.023Z,70.34
2022-11-10T15:19:38.746Z,70.24
2022-11-10T15:22:32.752Z,70.13
2022-11-10T15:25:21.569Z,71.20
2022-11-10T15:28:18.714Z,70.75
2022-11-10T15:31:07.572Z,71.14
2022-11-10T15:34:01.558Z,71.72
2022-11-10T15:36:47.076Z,71.90
2022-11-10T15:39:32.545Z,72.12
2022-11-10T15:42:21.468Z,71.66
2022-11-10T15:45:07.272Z,71.36
2022-11-10T15:47:52.604Z,71.24
2022-11-10T15:50:38.382Z,71.52
2022-11-10T15:53:30.288Z,71.37
2022-11-10T15:56:18.321Z,71.91
2022-11-10T15:59:04.244Z,72.68
2022-11-10T16:01:50.725Z,72.39
2022-11-10T16:04:36.047Z,72.40
2022-11-10T16:07:21.757Z,72.29
2022-11-10T16:10:07.169Z,72.49
2022-11-10T16:12:52.408Z,72.52
2022-11-10T16:15:39.015Z,73.10
2022-11-10T16:18:27.592Z,73.67
2022-11-10T16:21:14.639Z,73.90
2022-11-10T16:24:00.129Z,73.93
2022-11-10T16:26:45.850Z,73.67
2022-11-10T16:29:32.600Z,74.04
2022-11-10T16:32:18.143Z,73.62
2022-11-10T16:35:04.047Z,74.33
2022-11-10T16:37:49.816Z,74.38
2022-11-10T16:40:35.033Z,74.43
2022-11-10T16:43:20.829Z,74.91
2022-11-10T16:46:18.461Z,74.80
2022-11-10T16:49:06.416Z,73.78
2022-11-10T16:51:52.131Z,73.78
2022-11-10T16:54:37.588Z,73.99
2022-11-10T16:57:22.901Z,74.10
2022-11-10T17:00:09.699Z,74.82
2022-11-10T17:03:02.125Z,75.19
2022-11-10T17:05:48.551Z,75.59
2022-11-10T17:08:36.025Z,76.86
2022-11-10T17:11:21.755Z,76.86
2022-11-10T17:14:10.709Z,77.51
2022-11-10T17:16:56.777Z,77.29
2022-11-10T17:19:42.923Z,76.64
2022-11-10T17:22:33.608Z,77.07
2022-11-10T17:25:26.272Z,76.97
2022-11-10T17:28:16.078Z,77.33
2022-11-10T17:31:01.380Z,77.06
2022-11-10T17:33:46.933Z,77.40
2022-11-10T17:36:34.453Z,77.40
2022-11-10T17:39:20.042Z,77.34
2022-11-10T17:42:05.652Z,77.09
2022-11-10T17:44:50.735Z,77.55
2022-11-10T17:47:36.079Z,77.39
2022-11-10T17:50:23.615Z,77.95
2022-11-10T17:53:23.896Z,78.10
2022-11-10T17:56:09.540Z,77.60
2022-11-10T17:58:55.276Z,76.91
2022-11-10T18:01:40.998Z,77.33
2022-11-10T18:04:26.693Z,77.31
2022-11-10T18:07:11.866Z,77.73
2022-11-10T18:09:57.126Z,77.75
2022-11-10T18:12:42.837Z,77.41
2022-11-10T18:15:28.448Z,77.38
2022-11-10T18:18:15.686Z,77.61
2022-11-10T18:21:01.590Z,78.33
2022-11-10T18:23:47.116Z,78.31
2022-11-10T18:26:32.974Z,78.38
2022-11-10T18:29:18.309Z,77.99
2022-11-10T18:32:03.879Z,78.21
2022-11-10T18:34:49.709Z,78.23
2022-11-10T18:37:38.915Z,78.40
2022-11-10T18:40:25.146Z,78.49
2022-11-10T18:43:10.868Z,78.93
2022-11-10T18:45:56.564Z,78.59
2022-11-10T18:48:42.628Z,78.33
2022-11-10T18:51:27.762Z,78.66
2022-11-10T18:54:13.368Z,78.56
2022-11-10T18:56:58.737Z,78.25
2022-11-10T18:59:45.044Z,78.80
2022-11-10T19:02:30.353Z,78.01
2022-11-10T19:05:15.851Z,78.21
2022-11-10T19:08:01.321Z,78.18
2022-11-10T19:10:46.811Z,78.83
2022-11-10T19:13:32.409Z,78.40
2022-11-10T19:16:19.308Z,78.05
2022-11-10T19:19:04.758Z,77.89
2022-11-10T19:21:50.200Z,77.56
2022-11-10T19:24:53.631Z,78.68
2022-11-10T19:27:41.524Z,77.06
2022-11-10T19:30:26.832Z,77.18
2022-11-10T19:33:12.519Z,79.02
2022-11-10T19:36:03.484Z,78.40
2022-11-10T19:38:49.305Z,78.07
2022-11-10T19:41:36.073Z,76.58
2022-11-10T19:44:21.920Z,76.76
2022-11-10T19:47:07.622Z,76.47
2022-11-10T19:49:52.981Z,78.54
2022-11-10T19:52:38.687Z,78.21
2022-11-10T19:55:24.381Z,77.86
2022-11-10T19:58:10.095Z,78.45
2022-11-10T20:00:56.223Z,78.10
2022-11-10T20:03:41.671Z,78.10
2022-11-10T20:06:27.108Z,77.66
2022-11-10T20:09:12.668Z,81.60
2022-11-10T20:11:58.004Z,82.05
2022-11-10T20:14:43.284Z,82.11
2022-11-10T20:17:28.638Z,81.22
2022-11-10T20:20:14.948Z,82.29
2022-11-10T20:23:04.873Z,82.26
2022-11-10T20:25:50.315Z,81.67
2022-11-10T20:28:37.556Z,81.67
2022-11-10T20:31:24.464Z,81.32
2022-11-10T20:34:09.997Z,80.46
2022-11-10T20:36:55.803Z,80.05
2022-11-10T20:39:41.352Z,80.86
2022-11-10T20:42:26.986Z,80.93
2022-11-10T20:45:12.229Z,80.91
2022-11-10T20:47:58.815Z,80.88
2022-11-10T20:50:44.026Z,80.31
2022-11-10T20:53:29.775Z,80.49
2022-11-10T20:56:15.884Z,80.01
2022-11-10T20:59:01.429Z,80.05
2022-11-10T21:01:47.232Z,80.64
2022-11-10T21:04:32.781Z,81.43
2022-11-10T21:07:18.461Z,81.26
2022-11-10T21:10:04.283Z,81.51
2022-11-10T21:12:49.837Z,81.11
2022-11-10T21:15:39.065Z,81.16
2022-11-10T21:18:26.928Z,80.93
2022-11-10T21:21:23.852Z,81.39
2022-11-10T21:24:10.289Z,81.23
2022-11-10T21:26:57.193Z,82.23
2022-11-10T21:29:42.489Z,82.43
2022-11-10T21:32:28.153Z,80.70
2022-11-10T21:35:13.869Z,80.93
2022-11-10T21:37:59.294Z,81.26
2022-11-10T21:40:44.994Z,81.80
2022-11-10T21:43:31.312Z,81.81
2022-11-10T21:46:17.667Z,81.14
2022-11-10T21:49:07.436Z,81.06
2022-11-10T21:51:53.694Z,81.05
2022-11-10T21:54:39.069Z,80.93
2022-11-10T21:57:24.582Z,81.44
2022-11-10T22:00:11.625Z,81.46
2022-11-10T22:03:01.675Z,81.17
2022-11-10T22:05:47.023Z,80.85
2022-11-10T22:08:32.971Z,80.32
2022-11-10T22:11:39.231Z,80.37
2022-11-10T22:14:43.379Z,80.56
2022-11-10T22:17:46.977Z,80.89
2022-11-10T22:20:32.165Z,80.33
2022-11-10T22:23:17.509Z,80.43
2022-11-10T22:26:03.007Z,80.26
2022-11-10T22:28:48.525Z,79.49
2022-11-10T22:31:34.025Z,79.37
2022-11-10T22:34:19.978Z,80.14
2022-11-10T22:37:05.301Z,79.45
2022-11-10T22:40:09.166Z,79.76
2022-11-10T22:43:12.644Z,78.26
2022-11-10T22:45:57.774Z,79.19
2022-11-10T22:48:43.200Z,78.60
2022-11-10T22:51:30.253Z,78.99
2022-11-10T22:54:17.192Z,78.72
2022-11-10T22:57:02.690Z,80.05
2022-11-10T22:59:48.037Z,79.69
2022-11-10T23:02:33.580Z,80.77
2022-11-10T23:05:19.088Z,80.98
2022-11-10T23:08:04.301Z,80.50
2022-11-10T23:10:49.679Z,80.24
2022-11-10T23:13:36.724Z,80.21
2022-11-10T23:16:32.393Z,80.72
2022-11-10T23:19:17.504Z,79.97
2022-11-10T23:22:02.755Z,79.94
2022-11-10T23:24:49.824Z,79.36
2022-11-10T23:27:36.802Z,78.71
2022-11-10T23:30:24.288Z,78.27
2022-11-10T23:33:09.256Z,77.08
2022-11-10T23:35:54.587Z,77.78
2022-11-10T23:38:40.753Z,77.21
2022-11-10T23:41:26.808Z,77.54
2022-11-10T23:44:12.312Z,77.07
2022-11-10T23:46:57.669Z,76.98
2022-11-10T23:49:43.013Z,77.12
2022-11-10T23:52:28.140Z,77.09
2022-11-10T23:55:13.538Z,77.16
2022-11-10T23:57:59.068Z,77.82
